createdAt,value
2019-01-19T00:00:55.757Z,72.17
2019-01-19T00:04:04.167Z,72.14
2019-01-19T00:07:12.031Z,72.10
2019-01-19T00:10:27.094Z,70.83
2019-01-19T00:13:20.807Z,70.81
2019-01-19T00:16:29.802Z,70.73
2019-01-19T00:19:37.548Z,71.26
2019-01-19T00:22:45.744Z,71.22
2019-01-19T00:25:53.125Z,71.18
2019-01-19T00:32:04.739Z,70.18
2019-01-19T00:35:17.737Z,70.66
2019-01-19T00:38:06.394Z,70.66
2019-01-19T00:44:15.882Z,70.33
2019-01-19T00:47:20.492Z,70.46
2019-01-19T00:50:12.274Z,70.71
2019-01-19T00:53:20.389Z,70.54
2019-01-19T00:56:14.592Z,70.62
2019-01-19T00:59:05.825Z,70.41
2019-01-19T01:02:13.243Z,69.60
2019-01-19T01:05:04.689Z,69.86
2019-01-19T01:08:12.452Z,70.02
2019-01-19T01:11:08.216Z,70.13
2019-01-19T01:14:32.454Z,70.33
2019-01-19T01:17:40.376Z,69.97
2019-01-19T01:24:08.021Z,69.55
2019-01-19T01:27:15.754Z,69.23
2019-01-19T01:30:23.098Z,69.48
2019-01-19T01:33:35.227Z,69.98
2019-01-19T01:36:17.235Z,69.94
2019-01-19T01:39:25.448Z,69.83
2019-01-19T01:42:33.287Z,69.92
2019-01-19T01:45:41.297Z,70.44
2019-01-19T01:48:48.639Z,70.99
2019-01-19T01:54:58.041Z,72.20
2019-01-19T01:58:05.747Z,72.87
2019-01-19T02:01:26.447Z,71.70
2019-01-19T02:07:53.372Z,71.33
2019-01-19T02:11:01.473Z,71.39
2019-01-19T02:14:09.201Z,71.25
2019-01-19T02:17:16.935Z,71.47
2019-01-19T02:20:24.329Z,71.17
2019-01-19T02:23:32.136Z,71.04
2019-01-19T02:26:31.036Z,71.41
2019-01-19T02:33:04.707Z,71.13
2019-01-19T02:36:16.824Z,72.15
2019-01-19T02:39:30.022Z,72.42
2019-01-19T02:42:39.325Z,72.47
2019-01-19T02:45:33.885Z,72.23
2019-01-19T02:48:43.168Z,71.85
2019-01-19T02:51:51.773Z,71.63
2019-01-19T02:58:22.670Z,71.27
2019-01-19T03:04:32.782Z,71.36
2019-01-19T03:07:40.183Z,71.85
2019-01-19T03:10:33.780Z,71.94
2019-01-19T03:13:41.514Z,71.66
2019-01-19T03:16:47.135Z,71.30
2019-01-19T03:19:54.957Z,71.19
2019-01-19T03:23:03.058Z,71.62
2019-01-19T03:26:09.538Z,71.51
2019-01-19T03:29:18.727Z,71.15
2019-01-19T03:32:26.512Z,71.35
2019-01-19T03:35:21.615Z,71.30
2019-01-19T03:38:29.435Z,71.08
2019-01-19T03:41:37.710Z,70.99
2019-01-19T03:44:45.056Z,70.75
2019-01-19T03:47:46.910Z,71.28
2019-01-19T03:50:54.669Z,71.30
2019-01-19T03:54:02.077Z,71.20
2019-01-19T03:57:10.615Z,71.82
2019-01-19T04:00:37.200Z,71.23
2019-01-19T04:03:44.937Z,71.30
2019-01-19T04:06:52.959Z,70.36
2019-01-19T04:10:00.763Z,70.69
2019-01-19T04:13:03.015Z,71.01
2019-01-19T04:16:10.422Z,71.07
2019-01-19T04:19:18.119Z,71.17
2019-01-19T04:25:12.871Z,71.01
2019-01-19T04:36:43.809Z,70.50
2019-01-19T04:42:38.986Z,70.68
2019-01-19T04:45:08.509Z,70.50
2019-01-19T04:47:39.404Z,69.66
2019-01-19T04:50:09.932Z,70.12
2019-01-19T04:52:58.915Z,70.63
2019-01-19T04:55:30.180Z,70.62
2019-01-19T04:58:02.143Z,70.44
2019-01-19T05:00:32.314Z,70.29
2019-01-19T05:03:43.635Z,70.12
2019-01-19T05:12:26.748Z,70.03
2019-01-19T05:18:22.977Z,69.53
2019-01-19T05:24:26.947Z,69.09
2019-01-19T05:29:58.800Z,69.51
2019-01-19T05:35:39.923Z,69.56
2019-01-19T05:47:32.906Z,69.35
2019-01-19T05:50:44.713Z,69.10
2019-01-19T05:53:14.229Z,68.67
2019-01-19T05:55:43.635Z,69.07
2019-01-19T05:58:16.284Z,68.84
2019-01-19T06:01:26.066Z,68.67
2019-01-19T06:07:10.394Z,69.70
2019-01-19T06:09:39.931Z,69.11
2019-01-19T06:12:09.368Z,69.17
2019-01-19T06:14:38.866Z,68.83
2019-01-19T06:17:08.394Z,69.39
2019-01-19T06:23:05.731Z,69.34
2019-01-19T06:25:35.313Z,69.75
2019-01-19T06:28:04.713Z,69.38
2019-01-19T06:30:34.130Z,69.25
2019-01-19T06:33:03.983Z,69.36
2019-01-19T06:35:33.795Z,69.34
2019-01-19T06:38:03.743Z,69.34
2019-01-19T06:40:34.861Z,69.50
2019-01-19T06:43:04.347Z,69.38
2019-01-19T06:45:33.873Z,68.99
2019-01-19T06:48:03.593Z,68.94
2019-01-19T06:57:08.000Z,69.23
2019-01-19T07:02:47.873Z,69.66
2019-01-19T07:05:17.533Z,69.66
2019-01-19T07:07:47.124Z,69.62
2019-01-19T07:10:36.976Z,69.19
2019-01-19T07:19:22.574Z,69.35
2019-01-19T07:21:52.264Z,68.92
2019-01-19T07:27:17.967Z,69.68
2019-01-19T07:29:47.523Z,69.37
2019-01-19T07:35:23.357Z,69.07
2019-01-19T07:41:08.189Z,68.83
2019-01-19T07:44:17.191Z,69.03
2019-01-19T07:47:26.824Z,69.24
2019-01-19T07:49:56.383Z,69.37
2019-01-19T07:52:26.766Z,69.86
2019-01-19T07:54:56.207Z,69.45
2019-01-19T07:57:31.206Z,69.06
2019-01-19T07:59:57.969Z,68.62
2019-01-19T08:02:27.652Z,69.19
2019-01-19T08:04:57.280Z,69.29
2019-01-19T08:07:26.967Z,69.17
2019-01-19T08:09:56.683Z,69.01
2019-01-19T08:12:47.101Z,69.01
2019-01-19T08:15:57.064Z,68.82
2019-01-19T08:21:21.406Z,68.73
2019-01-19T08:23:50.784Z,69.56
2019-01-19T08:26:59.556Z,70.46
2019-01-19T08:32:32.987Z,69.14
2019-01-19T08:35:06.377Z,69.58
2019-01-19T08:37:35.873Z,69.75
2019-01-19T08:40:08.351Z,69.62
2019-01-19T08:42:38.085Z,69.47
2019-01-19T08:45:08.406Z,69.36
2019-01-19T08:47:37.873Z,69.66
2019-01-19T08:50:08.891Z,68.66
2019-01-19T08:52:38.513Z,68.95
2019-01-19T08:55:08.614Z,69.29
2019-01-19T08:57:38.216Z,69.83
2019-01-19T09:00:11.921Z,70.16
2019-01-19T09:02:41.939Z,69.32
2019-01-19T09:05:11.648Z,69.50
2019-01-19T09:07:41.460Z,69.61
2019-01-19T09:10:13.246Z,69.54
2019-01-19T09:12:42.706Z,69.61
2019-01-19T09:15:14.155Z,69.64
2019-01-19T09:17:43.874Z,70.13
2019-01-19T09:20:16.792Z,70.22
2019-01-19T09:22:48.070Z,70.07
2019-01-19T09:25:18.030Z,69.99
2019-01-19T09:27:47.601Z,68.75
2019-01-19T09:30:19.209Z,68.52
2019-01-19T09:32:49.377Z,68.90
2019-01-19T09:35:19.053Z,69.22
2019-01-19T09:37:49.572Z,69.30
2019-01-19T09:40:19.239Z,68.77
2019-01-19T09:42:49.072Z,68.83
2019-01-19T09:45:19.199Z,68.97
2019-01-19T09:47:48.634Z,68.27
2019-01-19T09:50:19.327Z,68.98
2019-01-19T09:52:49.036Z,69.41
2019-01-19T09:55:19.586Z,69.58
2019-01-19T09:57:51.625Z,70.17
2019-01-19T10:03:16.620Z,69.99
2019-01-19T10:09:34.404Z,70.16
2019-01-19T10:12:06.386Z,70.57
2019-01-19T10:14:35.784Z,69.72
2019-01-19T10:20:32.229Z,69.67
2019-01-19T10:23:41.172Z,70.21
2019-01-19T10:26:10.608Z,70.12
2019-01-19T10:28:41.462Z,70.69
2019-01-19T10:31:11.347Z,70.71
2019-01-19T10:33:41.299Z,69.58
2019-01-19T10:36:10.797Z,69.85
2019-01-19T10:38:40.736Z,69.15
2019-01-19T10:41:10.523Z,69.31
2019-01-19T10:43:39.950Z,69.51
2019-01-19T10:46:09.629Z,69.36
2019-01-19T10:48:39.960Z,68.69
2019-01-19T10:51:09.433Z,68.63
2019-01-19T10:53:38.848Z,67.62
2019-01-19T10:56:08.341Z,67.50
2019-01-19T10:58:37.783Z,67.54
2019-01-19T11:01:07.330Z,67.78
2019-01-19T11:03:36.829Z,68.44
2019-01-19T11:06:10.317Z,68.64
2019-01-19T11:08:39.872Z,68.48
2019-01-19T11:11:09.303Z,68.68
2019-01-19T11:13:39.137Z,68.78
2019-01-19T11:16:08.843Z,68.49
2019-01-19T11:18:38.550Z,68.54
2019-01-19T11:21:08.083Z,69.48
2019-01-19T11:23:39.859Z,69.08
2019-01-19T11:26:12.255Z,69.08
2019-01-19T11:28:41.834Z,69.46
2019-01-19T11:31:11.423Z,68.96
2019-01-19T11:33:44.599Z,68.51
2019-01-19T11:36:14.328Z,68.84
2019-01-19T11:38:44.001Z,68.94
2019-01-19T11:41:13.468Z,69.29
2019-01-19T11:43:42.919Z,68.95
2019-01-19T11:46:12.466Z,68.64
2019-01-19T11:48:44.362Z,68.31
2019-01-19T11:51:13.859Z,67.93
2019-01-19T11:53:43.267Z,68.20
2019-01-19T11:56:15.133Z,68.70
2019-01-19T11:58:44.576Z,68.34
2019-01-19T12:01:13.997Z,68.45
2019-01-19T12:03:43.522Z,68.51
2019-01-19T12:06:13.053Z,68.79
2019-01-19T12:08:42.608Z,68.34
2019-01-19T12:11:13.228Z,67.91
2019-01-19T12:13:42.709Z,68.24
2019-01-19T12:16:12.981Z,68.30
2019-01-19T12:18:42.599Z,68.56
2019-01-19T12:21:12.137Z,68.49
2019-01-19T12:26:55.728Z,68.31
2019-01-19T12:30:04.627Z,68.89
2019-01-19T12:33:15.754Z,68.78
2019-01-19T12:41:47.291Z,69.44
2019-01-19T12:44:56.232Z,69.28
2019-01-19T12:48:05.379Z,69.08
2019-01-19T12:53:36.443Z,70.00
2019-01-19T12:56:45.130Z,69.92
2019-01-19T13:02:10.270Z,70.12
2019-01-19T13:04:39.799Z,70.25
2019-01-19T13:07:15.006Z,70.27
2019-01-19T13:09:48.153Z,70.59
2019-01-19T13:12:39.885Z,71.04
2019-01-19T13:15:47.714Z,71.11
2019-01-19T13:18:55.284Z,71.19
2019-01-19T13:22:02.674Z,71.12
2019-01-19T13:25:10.092Z,71.32
2019-01-19T13:28:06.807Z,70.66
2019-01-19T13:31:14.670Z,70.55
2019-01-19T13:34:22.374Z,70.87
2019-01-19T13:37:30.217Z,70.80
2019-01-19T13:40:37.998Z,70.88
2019-01-19T13:47:06.339Z,70.54
2019-01-19T13:50:14.362Z,70.86
2019-01-19T13:53:08.936Z,70.59
2019-01-19T13:56:11.943Z,71.13
2019-01-19T13:58:48.916Z,71.03
2019-01-19T14:01:58.109Z,71.29
2019-01-19T14:04:39.136Z,71.65
2019-01-19T14:07:32.701Z,71.18
2019-01-19T14:11:03.919Z,71.38
2019-01-19T14:14:18.330Z,71.81
2019-01-19T14:17:25.849Z,71.68
2019-01-19T14:20:04.858Z,71.36
2019-01-19T14:23:10.004Z,71.58
2019-01-19T14:26:17.303Z,71.51
2019-01-19T14:29:30.677Z,71.43
2019-01-19T14:32:37.302Z,71.66
2019-01-19T14:35:45.804Z,71.80
2019-01-19T14:38:56.796Z,71.84
2019-01-19T14:42:24.113Z,72.14
2019-01-19T14:45:29.779Z,72.13
2019-01-19T14:49:04.540Z,72.62
2019-01-19T14:52:15.075Z,72.29
2019-01-19T14:55:01.695Z,72.36
2019-01-19T14:57:56.295Z,72.18
2019-01-19T15:01:08.604Z,71.52
2019-01-19T15:04:21.995Z,71.83
2019-01-19T15:07:24.438Z,71.00
2019-01-19T15:10:14.399Z,71.33
2019-01-19T15:13:16.716Z,71.52
2019-01-19T15:16:24.188Z,71.58
2019-01-19T15:19:37.898Z,71.58
2019-01-19T15:22:28.022Z,71.27
2019-01-19T15:25:36.734Z,70.88
2019-01-19T15:29:08.132Z,70.88
2019-01-19T15:32:24.971Z,70.31
2019-01-19T15:35:42.053Z,70.74
2019-01-19T15:38:49.710Z,70.51
2019-01-19T15:42:05.430Z,69.77
2019-01-19T15:45:18.631Z,70.33
2019-01-19T15:48:31.848Z,70.35
2019-01-19T15:51:37.980Z,70.40
2019-01-19T15:54:25.483Z,70.42
2019-01-19T15:57:33.379Z,70.65
2019-01-19T16:00:14.432Z,70.32
2019-01-19T16:06:50.142Z,69.79
2019-01-19T16:10:00.586Z,69.96
2019-01-19T16:13:08.501Z,70.03
2019-01-19T16:16:16.631Z,70.50
2019-01-19T16:19:24.877Z,70.18
2019-01-19T16:22:32.695Z,69.92
2019-01-19T16:25:40.519Z,70.91
2019-01-19T16:28:48.307Z,70.88
2019-01-19T16:35:04.468Z,70.63
2019-01-19T16:38:02.928Z,71.04
2019-01-19T16:40:54.493Z,70.41
2019-01-19T16:44:09.534Z,70.26
2019-01-19T16:47:22.978Z,70.29
2019-01-19T16:50:19.018Z,69.92
2019-01-19T16:53:22.832Z,70.01
2019-01-19T16:56:20.412Z,69.79
2019-01-19T16:59:16.102Z,69.76
2019-01-19T17:02:34.679Z,69.68
2019-01-19T17:05:45.118Z,69.75
2019-01-19T17:08:46.634Z,69.81
2019-01-19T17:12:06.188Z,70.21
2019-01-19T17:15:13.895Z,70.06
2019-01-19T17:18:13.241Z,70.35
2019-01-19T17:21:12.449Z,70.61
2019-01-19T17:24:11.190Z,70.71
2019-01-19T17:27:19.413Z,70.60
2019-01-19T17:30:27.676Z,71.06
2019-01-19T17:36:56.646Z,71.94
2019-01-19T17:40:06.195Z,72.30
2019-01-19T17:43:13.318Z,72.26
2019-01-19T17:46:19.531Z,71.56
2019-01-19T17:49:14.764Z,71.63
2019-01-19T17:52:23.348Z,71.39
2019-01-19T17:55:51.433Z,71.45
2019-01-19T17:59:09.485Z,71.13
2019-01-19T18:02:15.565Z,70.39
2019-01-19T18:05:09.818Z,70.72
2019-01-19T18:08:23.127Z,70.98
2019-01-19T18:11:21.387Z,70.80
2019-01-19T18:14:24.444Z,71.19
2019-01-19T18:17:41.218Z,70.29
2019-01-19T18:21:03.234Z,71.86
2019-01-19T18:24:02.511Z,73.02
2019-01-19T18:27:40.086Z,73.27
2019-01-19T18:30:44.610Z,72.13
2019-01-19T18:33:43.095Z,73.15
2019-01-19T18:36:34.872Z,72.86
2019-01-19T18:39:45.186Z,72.55
2019-01-19T18:42:50.310Z,72.13
2019-01-19T18:45:58.349Z,72.33
2019-01-19T18:52:27.566Z,72.72
2019-01-19T18:55:35.107Z,72.41
2019-01-19T18:59:57.049Z,71.91
2019-01-19T19:03:04.644Z,72.14
2019-01-19T19:05:59.974Z,72.28
2019-01-19T19:08:41.629Z,72.62
2019-01-19T19:11:51.280Z,72.41
2019-01-19T19:14:39.072Z,71.62
2019-01-19T19:18:04.797Z,71.99
2019-01-19T19:21:19.171Z,71.91
2019-01-19T19:24:41.686Z,72.20
2019-01-19T19:27:46.355Z,72.06
2019-01-19T19:30:43.043Z,71.81
2019-01-19T19:33:59.842Z,71.95
2019-01-19T19:36:49.996Z,71.92
2019-01-19T19:40:27.904Z,71.59
2019-01-19T19:43:47.654Z,71.36
2019-01-19T19:47:10.545Z,71.50
2019-01-19T19:50:08.287Z,71.40
2019-01-19T19:52:38.175Z,71.06
2019-01-19T19:55:06.030Z,70.62
2019-01-19T19:57:35.886Z,70.29
2019-01-19T20:00:07.378Z,70.50
2019-01-19T20:02:39.562Z,69.47
2019-01-19T20:05:09.808Z,69.97
2019-01-19T20:07:39.768Z,69.78
2019-01-19T20:10:16.949Z,70.19
2019-01-19T20:15:57.610Z,70.14
2019-01-19T20:19:07.600Z,70.39
2019-01-19T20:21:38.024Z,70.27
2019-01-19T20:24:08.427Z,70.27
2019-01-19T20:26:38.137Z,70.19
2019-01-19T20:29:08.598Z,70.24
2019-01-19T20:31:38.994Z,70.07
2019-01-19T20:34:09.221Z,69.87
2019-01-19T20:36:39.910Z,69.55
2019-01-19T20:39:10.980Z,69.52
2019-01-19T20:41:40.866Z,69.29
2019-01-19T20:44:11.862Z,69.23
2019-01-19T20:46:41.841Z,69.38
2019-01-19T20:49:11.678Z,69.66
2019-01-19T20:51:42.006Z,69.09
2019-01-19T20:54:11.894Z,68.79
2019-01-19T20:56:44.031Z,69.13
2019-01-19T20:59:13.919Z,69.27
2019-01-19T21:01:44.546Z,69.66
2019-01-19T21:04:15.940Z,69.69
2019-01-19T21:06:46.640Z,69.60
2019-01-19T21:09:16.644Z,69.31
2019-01-19T21:11:46.608Z,69.75
2019-01-19T21:14:16.501Z,69.42
2019-01-19T21:16:46.296Z,69.14
2019-01-19T21:19:17.248Z,68.95
2019-01-19T21:21:47.421Z,68.99
2019-01-19T21:24:17.696Z,68.45
2019-01-19T21:26:47.490Z,68.62
2019-01-19T21:29:17.957Z,68.52
2019-01-19T21:31:48.214Z,68.56
2019-01-19T21:34:18.184Z,68.44
2019-01-19T21:36:48.531Z,68.98
2019-01-19T21:39:19.848Z,68.13
2019-01-19T21:41:49.535Z,68.83
2019-01-19T21:44:19.357Z,68.77
2019-01-19T21:46:49.037Z,69.26
2019-01-19T21:49:19.261Z,68.67
2019-01-19T21:51:48.955Z,68.76
2019-01-19T21:54:18.671Z,68.60
2019-01-19T21:56:51.164Z,68.51
2019-01-19T21:59:20.885Z,68.30
2019-01-19T22:01:50.459Z,68.41
2019-01-19T22:04:20.020Z,69.58
2019-01-19T22:06:49.601Z,71.64
2019-01-19T22:09:19.187Z,70.53
2019-01-19T22:11:49.620Z,70.08
2019-01-19T22:14:19.814Z,70.79
2019-01-19T22:16:49.943Z,70.67
2019-01-19T22:19:20.654Z,69.02
2019-01-19T22:21:50.139Z,68.78
2019-01-19T22:24:20.591Z,69.13
2019-01-19T22:26:52.482Z,69.18
2019-01-19T22:29:22.141Z,69.33
2019-01-19T22:31:52.024Z,70.27
2019-01-19T22:34:21.719Z,69.33
2019-01-19T22:36:51.752Z,69.42
2019-01-19T22:39:21.955Z,69.15
2019-01-19T22:41:51.844Z,68.85
2019-01-19T22:44:24.399Z,68.79
2019-01-19T22:46:53.768Z,68.06
2019-01-19T22:49:23.660Z,67.43
2019-01-19T22:51:53.311Z,67.49
2019-01-19T22:54:22.997Z,67.37
2019-01-19T22:56:52.483Z,67.89
2019-01-19T22:59:22.016Z,68.59
2019-01-19T23:02:04.741Z,68.90
2019-01-19T23:04:35.215Z,68.90
2019-01-19T23:07:05.125Z,69.36
2019-01-19T23:09:34.532Z,69.32
2019-01-19T23:12:04.185Z,69.90
2019-01-19T23:14:34.040Z,69.20
2019-01-19T23:17:03.579Z,69.73
2019-01-19T23:19:33.318Z,69.97
2019-01-19T23:22:02.844Z,70.10
2019-01-19T23:24:32.344Z,71.50
2019-01-19T23:27:07.318Z,70.42
2019-01-19T23:29:37.838Z,72.96
2019-01-19T23:32:07.854Z,77.73
2019-01-19T23:34:37.638Z,76.43
2019-01-19T23:37:07.787Z,79.15
2019-01-19T23:39:37.293Z,79.15
2019-01-19T23:42:07.453Z,79.09
2019-01-19T23:44:37.375Z,79.18
2019-01-19T23:47:07.110Z,78.75
2019-01-19T23:49:37.304Z,80.07
2019-01-19T23:52:06.957Z,81.57
2019-01-19T23:54:38.631Z,80.62
2019-01-19T23:57:08.896Z,79.44
2019-01-19T23:59:38.343Z,78.67
